Terminal Aerodrome Forecast
Issued by NWS Wilmington, OH

Current Version | Previous Version | Text Only | Print | Product List | Glossary Off
Versions: 1 2 3 4 5 6 7 8 9 10 11 12 13 14 15 16 17 18 19 20 21 22

833
FTUS41 KILN 042352
TAFILN
TAF
KILN 042352Z 0500/0524 13008KT 4SM -RA BR OVC025
      TEMPO 0500/0502 2SM -RA BR OVC018
     FM050200 18006KT 4SM -RA BR OVC006
     FM050400 28010KT P6SM OVC004
     FM051400 29005KT P6SM BKN011
     FM051800 VRB04KT P6SM SCT015 BKN200=

USA.gov is the U.S. government's official web portal to all federal, state and local government web resources and services.